Time;durP1;ratioP1;P1;durP2;ratioP2;P2;SDS_P1;SDS_P2;PMS_P1;PMS_P2;Temp;Humidity;BMP_temperature;BMP_pressure;BME280_temperature;BME280_humidity;BME280_pressure;Samples;Min_cycle;Max_cycle;Signal;HPM_P1;HPM_P2
2023/05/10 00:00:32;;;;;;;4.57;2.63;;;;;;;;;;5032548;28;20018;-73
2023/05/10 00:02:58;;;;;;;5.80;3.40;;;;;;;;;;5032570;28;20041;-73
2023/05/10 00:05:23;;;;;;;6.00;2.90;;;;;;;;;;5032278;28;20376;-71
2023/05/10 00:07:48;;;;;;;6.80;3.33;;;;;;;;;;5032351;28;20383;-73
2023/05/10 00:10:14;;;;;;;5.55;2.80;;;;;;;;;;5032350;28;20034;-73
2023/05/10 00:12:40;;;;;;;3.70;2.42;;;;;;;;;;5032450;28;20083;-70
2023/05/10 00:15:06;;;;;;;6.57;3.67;;;;;;;;;;5032274;28;20498;-73
2023/05/10 00:17:31;;;;;;;4.10;2.90;;;;;;;;;;5032383;28;20040;-72
2023/05/10 00:19:57;;;;;;;6.55;2.88;;;;;;;;;;5030458;28;20025;-73
2023/05/10 00:22:22;;;;;;;4.03;2.30;;;;;;;;;;5032358;28;20032;-70
2023/05/10 00:24:48;;;;;;;4.72;2.78;;;;;;;;;;5032328;28;20022;-72
2023/05/10 00:27:13;;;;;;;7.05;3.28;;;;;;;;;;5030815;28;20056;-73
2023/05/10 00:29:39;;;;;;;5.90;3.20;;;;;;;;;;5032118;28;20049;-71
2023/05/10 00:32:04;;;;;;;5.57;3.13;;;;;;;;;;5032250;28;20025;-73
2023/05/10 00:34:30;;;;;;;4.57;2.80;;;;;;;;;;5031915;28;20033;-73
2023/05/10 00:36:56;;;;;;;5.57;3.17;;;;;;;;;;5032076;28;20025;-69
2023/05/10 00:39:21;;;;;;;5.65;3.40;;;;;;;;;;5032231;28;20545;-70
2023/05/10 00:41:47;;;;;;;5.60;2.42;;;;;;;;;;5030845;28;20028;-73
2023/05/10 00:44:12;;;;;;;6.57;3.50;;;;;;;;;;5032074;28;20091;-72
2023/05/10 00:46:37;;;;;;;6.38;3.20;;;;;;;;;;5032110;28;20076;-72
2023/05/10 00:49:04;;;;;;;5.28;3.30;;;;;;;;;;5031881;28;20068;-72
2023/05/10 00:51:30;;;;;;;5.60;3.25;;;;;;;;;;5031974;28;20025;-71
2023/05/10 00:53:56;;;;;;;7.10;3.25;;;;;;;;;;5030586;28;20029;-73
2023/05/10 00:56:24;;;;;;;4.03;2.15;;;;;;;;;;5014305;28;20034;-72
2023/05/10 00:58:50;;;;;;;7.05;2.92;;;;;;;;;;5032289;28;20095;-69
2023/05/10 01:01:15;;;;;;;4.30;3.08;;;;;;;;;;5032067;28;20488;-68
2023/05/10 01:03:41;;;;;;;5.47;3.08;;;;;;;;;;5032723;28;20438;-72
2023/05/10 01:06:07;;;;;;;8.50;3.10;;;;;;;;;;5035577;28;20041;-71
2023/05/10 01:08:33;;;;;;;6.43;3.00;;;;;;;;;;5035447;28;20021;-71
2023/05/10 01:10:59;;;;;;;5.10;2.97;;;;;;;;;;5035346;28;20532;-72
2023/05/10 01:13:32;;;;;;;3.53;1.80;;;;;;;;;;5035464;28;20033;-70
2023/05/10 01:15:58;;;;;;;5.30;3.30;;;;;;;;;;5035077;28;20021;-70
2023/05/10 01:18:25;;;;;;;7.57;3.28;;;;;;;;;;5035125;28;20048;-71
2023/05/10 01:21:13;;;;;;;7.47;2.80;;;;;;;;;;5034898;28;20021;-70
2023/05/10 01:24:00;;;;;;;3.85;2.05;;;;;;;;;;5034981;28;20049;-72
2023/05/10 01:26:43;;;;;;;5.80;3.58;;;;;;;;;;5035012;28;20042;-73
2023/05/10 01:29:29;;;;;;;3.63;2.53;;;;;;;;;;5033795;28;20399;-67
2023/05/10 01:32:29;;;;;;;4.85;3.17;;;;;;;;;;5033431;28;20029;-71
2023/05/10 01:35:09;;;;;;;7.15;3.50;;;;;;;;;;5034887;28;20029;-70
2023/05/10 01:37:38;;;;;;;;;;;;;;;;;;5035297;28;20025;-70
2023/05/10 01:40:18;;;;;;;5.20;3.33;;;;;;;;;;5034933;28;19920;-71
2023/05/10 01:42:54;;;;;;;7.78;3.55;;;;;;;;;;5034919;28;20467;-73
2023/05/10 01:45:36;;;;;;;3.78;2.45;;;;;;;;;;5034824;28;20546;-72
2023/05/10 01:48:07;;;;;;;7.68;3.70;;;;;;;;;;5034653;28;20021;-72
2023/05/10 01:50:35;;;;;;;5.75;2.90;;;;;;;;;;5034791;28;20360;-73
2023/05/10 01:53:02;;;;;;;4.85;3.15;;;;;;;;;;5034630;28;20032;-72
2023/05/10 01:55:35;;;;;;;6.43;3.20;;;;;;;;;;5034660;28;20104;-72
2023/05/10 01:58:14;;;;;;;6.43;3.65;;;;;;;;;;5034461;28;20028;-69
2023/05/10 02:00:50;;;;;;;8.18;3.25;;;;;;;;;;5034458;28;20025;-67
2023/05/10 02:03:17;;;;;;;7.22;3.10;;;;;;;;;;5034479;28;20032;-72
2023/05/10 02:05:45;;;;;;;8.68;3.75;;;;;;;;;;5034350;28;20052;-72
2023/05/10 02:08:13;;;;;;;5.10;3.47;;;;;;;;;;5034212;28;20402;-71
2023/05/10 02:10:39;;;;;;;4.50;2.78;;;;;;;;;;5034364;28;20459;-73
2023/05/10 02:13:08;;;;;;;3.08;2.20;;;;;;;;;;5033234;28;20391;-70
2023/05/10 02:15:35;;;;;;;5.40;3.33;;;;;;;;;;5033089;28;20036;-67
2023/05/10 02:18:02;;;;;;;5.47;3.28;;;;;;;;;;5034074;28;20033;-67
2023/05/10 02:20:31;;;;;;;8.45;3.85;;;;;;;;;;5033788;28;20064;-72
2023/05/10 02:22:57;;;;;;;5.50;2.88;;;;;;;;;;5032786;28;20025;-71
2023/05/10 02:25:24;;;;;;;5.00;3.58;;;;;;;;;;5034048;28;20025;-69
2023/05/10 02:27:51;;;;;;;8.07;3.03;;;;;;;;;;5033611;28;20084;-70
2023/05/10 02:30:18;;;;;;;8.18;3.75;;;;;;;;;;5033651;28;20048;-72
2023/05/10 02:32:44;;;;;;;7.15;3.42;;;;;;;;;;5033833;28;20026;-72
2023/05/10 02:35:10;;;;;;;7.30;3.70;;;;;;;;;;5033556;28;20029;-72
2023/05/10 02:37:37;;;;;;;5.60;3.10;;;;;;;;;;5033490;28;20025;-71
2023/05/10 02:40:04;;;;;;;7.32;3.28;;;;;;;;;;5033591;28;20033;-71
2023/05/10 02:42:33;;;;;;;9.00;3.47;;;;;;;;;;5033634;28;20100;-71
2023/05/10 02:45:03;;;;;;;6.60;3.38;;;;;;;;;;5033203;28;20383;-72
2023/05/10 02:47:29;;;;;;;5.15;2.85;;;;;;;;;;5033390;28;20168;-69
2023/05/10 02:49:55;;;;;;;3.88;2.40;;;;;;;;;;5033434;28;20037;-72
2023/05/10 02:52:27;;;;;;;4.18;2.72;;;;;;;;;;5016421;28;20029;-72
2023/05/10 02:55:00;;;;;;;6.78;3.95;;;;;;;;;;5013614;28;20037;-71
2023/05/10 02:57:28;;;;;;;5.72;3.08;;;;;;;;;;5013503;28;20022;-72
2023/05/10 02:59:54;;;;;;;5.68;3.25;;;;;;;;;;5013416;28;20032;-72
2023/05/10 03:02:20;;;;;;;9.30;4.50;;;;;;;;;;5013584;28;20029;-72
2023/05/10 03:04:46;;;;;;;5.45;3.00;;;;;;;;;;5013403;28;20022;-71
2023/05/10 03:07:12;;;;;;;5.05;3.42;;;;;;;;;;5013522;28;20119;-73
2023/05/10 03:09:37;;;;;;;9.55;3.90;;;;;;;;;;5013394;28;20030;-72
2023/05/10 03:12:15;;;;;;;5.57;3.47;;;;;;;;;;5013275;28;20029;-72
2023/05/10 03:15:03;;;;;;;7.35;3.47;;;;;;;;;;5013185;28;20026;-72
2023/05/10 03:17:58;;;;;;;8.57;4.25;;;;;;;;;;5013499;28;20026;-73
2023/05/10 03:20:35;;;;;;;7.15;3.95;;;;;;;;;;5023256;28;20096;-73
2023/05/10 03:23:15;;;;;;;6.20;3.20;;;;;;;;;;5032853;28;20427;-73
2023/05/10 03:25:43;;;;;;;6.82;4.00;;;;;;;;;;5032839;28;20025;-73
2023/05/10 03:28:09;;;;;;;10.05;3.35;;;;;;;;;;5032185;28;20037;-73
2023/05/10 03:30:35;;;;;;;8.80;3.60;;;;;;;;;;5032937;28;20479;-74
2023/05/10 03:33:07;;;;;;;8.82;3.90;;;;;;;;;;5032753;28;20525;-73
2023/05/10 03:35:32;;;;;;;7.18;3.95;;;;;;;;;;5032675;28;20030;-73
2023/05/10 03:37:58;;;;;;;9.10;3.60;;;;;;;;;;5032680;28;20429;-72
2023/05/10 03:40:24;;;;;;;7.40;3.53;;;;;;;;;;5032672;28;20037;-73
2023/05/10 03:42:49;;;;;;;5.93;3.83;;;;;;;;;;5032734;28;20021;-73
2023/05/10 03:45:15;;;;;;;9.38;4.30;;;;;;;;;;5032688;28;20041;-73
2023/05/10 03:47:40;;;;;;;7.45;3.83;;;;;;;;;;5032660;28;20079;-69
2023/05/10 03:50:06;;;;;;;7.22;3.95;;;;;;;;;;5032510;28;20036;-70
2023/05/10 03:52:32;;;;;;;7.00;4.10;;;;;;;;;;5032487;28;20479;-71
2023/05/10 03:54:57;;;;;;;8.05;4.10;;;;;;;;;;5032233;28;20026;-72
2023/05/10 03:57:23;;;;;;;8.10;4.38;;;;;;;;;;5032295;28;20053;-67
2023/05/10 03:59:48;;;;;;;9.23;4.95;;;;;;;;;;5032456;28;20407;-69
2023/05/10 04:02:14;;;;;;;6.50;4.68;;;;;;;;;;5032596;28;20021;-71
2023/05/10 04:04:39;;;;;;;7.57;4.38;;;;;;;;;;5032388;28;20105;-73
2023/05/10 04:07:05;;;;;;;14.52;5.72;;;;;;;;;;5032501;28;20029;-71
2023/05/10 04:09:31;;;;;;;7.25;4.35;;;;;;;;;;5032406;28;20049;-70
2023/05/10 04:11:56;;;;;;;5.85;3.38;;;;;;;;;;5031912;28;20031;-69
2023/05/10 04:14:22;;;;;;;8.40;4.25;;;;;;;;;;5032312;28;20025;-70
2023/05/10 04:16:47;;;;;;;8.43;3.80;;;;;;;;;;5032377;28;20467;-71
2023/05/10 04:19:13;;;;;;;6.25;3.03;;;;;;;;;;5047566;28;20021;-73
2023/05/10 04:21:38;;;;;;;7.85;4.25;;;;;;;;;;5032074;28;20514;-70
2023/05/10 04:24:04;;;;;;;8.20;3.72;;;;;;;;;;5032225;28;20375;-72
2023/05/10 04:26:29;;;;;;;10.57;4.43;;;;;;;;;;5030594;28;20494;-66
2023/05/10 04:28:55;;;;;;;5.82;3.38;;;;;;;;;;5030963;28;20026;-72
2023/05/10 04:31:21;;;;;;;7.35;3.70;;;;;;;;;;5032265;28;20033;-70
2023/05/10 04:33:50;;;;;;;11.50;4.35;;;;;;;;;;5032117;28;20491;-73
2023/05/10 04:36:15;;;;;;;7.15;4.03;;;;;;;;;;5032064;28;20487;-69
2023/05/10 04:38:40;;;;;;;6.05;3.83;;;;;;;;;;5033293;28;20112;-68
2023/05/10 04:41:08;;;;;;;7.50;4.25;;;;;;;;;;5035745;28;20107;-73
2023/05/10 04:43:33;;;;;;;7.75;4.38;;;;;;;;;;5035689;28;20030;-71
2023/05/10 04:45:59;;;;;;;9.70;4.50;;;;;;;;;;5035393;28;20041;-71
2023/05/10 04:48:24;;;;;;;7.68;4.43;;;;;;;;;;5035618;28;20025;-71
2023/05/10 04:50:50;;;;;;;11.25;4.47;;;;;;;;;;5034512;28;20024;-65
2023/05/10 04:53:15;;;;;;;9.43;4.15;;;;;;;;;;5035726;28;20031;-69
2023/05/10 04:55:41;;;;;;;8.77;5.20;;;;;;;;;;5035133;28;20479;-68
2023/05/10 04:58:07;;;;;;;5.75;3.60;;;;;;;;;;5035594;28;20017;-67
2023/05/10 05:00:33;;;;;;;10.85;4.53;;;;;;;;;;5035502;28;20044;-69
2023/05/10 05:02:58;;;;;;;7.05;3.92;;;;;;;;;;5035433;28;20131;-69
2023/05/10 05:05:24;;;;;;;19.27;4.95;;;;;;;;;;5035375;28;20064;-71
2023/05/10 05:07:49;;;;;;;9.43;4.25;;;;;;;;;;5035297;28;20352;-66
2023/05/10 05:10:15;;;;;;;9.85;4.10;;;;;;;;;;5035182;28;20523;-65
2023/05/10 05:12:40;;;;;;;7.00;4.10;;;;;;;;;;5035309;28;20017;-67
2023/05/10 05:15:08;;;;;;;9.25;4.35;;;;;;;;;;5035097;28;20143;-70
2023/05/10 05:17:33;;;;;;;9.90;4.03;;;;;;;;;;5035350;28;20544;-71
2023/05/10 05:19:58;;;;;;;5.10;3.67;;;;;;;;;;5034889;28;20026;-70
2023/05/10 05:22:27;;;;;;;7.63;2.90;;;;;;;;;;5035183;28;20032;-72
2023/05/10 05:24:54;;;;;;;7.93;3.95;;;;;;;;;;5034586;28;20395;-71
2023/05/10 05:27:22;;;;;;;12.70;4.53;;;;;;;;;;5034824;28;20144;-66
2023/05/10 05:29:47;;;;;;;7.57;3.63;;;;;;;;;;5035071;28;20358;-68
2023/05/10 05:32:13;;;;;;;11.93;4.40;;;;;;;;;;5034865;28;20029;-69
2023/05/10 05:34:38;;;;;;;9.52;4.57;;;;;;;;;;5034876;28;20463;-71
2023/05/10 05:37:04;;;;;;;6.60;3.38;;;;;;;;;;5034445;28;20042;-66
2023/05/10 05:39:29;;;;;;;7.28;4.00;;;;;;;;;;5034449;28;20080;-67
2023/05/10 05:41:55;;;;;;;6.57;3.92;;;;;;;;;;5034674;28;20064;-65
2023/05/10 05:44:20;;;;;;;4.95;3.50;;;;;;;;;;5034682;28;20049;-70
2023/05/10 05:46:45;;;;;;;7.15;4.10;;;;;;;;;;5034763;28;20029;-65
2023/05/10 05:49:12;;;;;;;9.38;4.18;;;;;;;;;;5034622;28;20076;-68
2023/05/10 05:51:37;;;;;;;8.45;3.92;;;;;;;;;;5034548;28;20434;-65
2023/05/10 05:54:04;;;;;;;6.00;3.17;;;;;;;;;;5034268;28;20061;-66
2023/05/10 05:56:29;;;;;;;5.75;3.10;;;;;;;;;;5034144;28;20034;-67
2023/05/10 05:58:55;;;;;;;6.97;3.63;;;;;;;;;;5034561;28;20033;-68
2023/05/10 06:01:20;;;;;;;10.35;4.40;;;;;;;;;;5034374;28;20017;-67
2023/05/10 06:03:46;;;;;;;6.47;4.20;;;;;;;;;;5034167;28;20418;-63
2023/05/10 06:06:12;;;;;;;5.68;3.50;;;;;;;;;;5034412;28;20021;-70
2023/05/10 06:08:37;;;;;;;6.63;3.60;;;;;;;;;;5034152;28;20367;-63
2023/05/10 06:11:04;;;;;;;6.28;2.97;;;;;;;;;;5034225;28;20021;-70
2023/05/10 06:13:31;;;;;;;11.30;3.85;;;;;;;;;;5034246;28;20356;-64
2023/05/10 06:15:58;;;;;;;7.75;3.85;;;;;;;;;;5033972;28;20430;-73
2023/05/10 06:18:23;;;;;;;4.60;2.63;;;;;;;;;;5034159;28;20502;-64
2023/05/10 06:20:49;;;;;;;8.90;3.33;;;;;;;;;;5033632;28;20022;-72
2023/05/10 06:23:15;;;;;;;7.57;2.97;;;;;;;;;;5033789;28;20034;-71
2023/05/10 06:25:40;;;;;;;5.72;3.00;;;;;;;;;;5033707;28;20037;-71
2023/05/10 06:28:06;;;;;;;6.10;3.15;;;;;;;;;;5033593;28;20128;-70
2023/05/10 06:30:31;;;;;;;5.85;3.60;;;;;;;;;;5033891;28;20079;-72
2023/05/10 06:32:57;;;;;;;6.05;2.67;;;;;;;;;;5033556;28;20030;-71
2023/05/10 06:35:22;;;;;;;9.18;3.50;;;;;;;;;;5033668;28;20025;-72
2023/05/10 06:37:48;;;;;;;6.20;3.63;;;;;;;;;;5033269;28;20024;-71
2023/05/10 06:40:14;;;;;;;7.50;3.58;;;;;;;;;;5033603;28;20025;-70
2023/05/10 06:42:39;;;;;;;8.60;3.70;;;;;;;;;;5033471;28;20129;-63
2023/05/10 06:45:05;;;;;;;6.20;3.38;;;;;;;;;;5033311;28;20407;-69
2023/05/10 06:47:31;;;;;;;6.85;3.15;;;;;;;;;;5033261;28;20025;-68
2023/05/10 06:49:57;;;;;;;4.70;2.85;;;;;;;;;;5032903;28;20043;-66
2023/05/10 06:52:23;;;;;;;8.13;2.97;;;;;;;;;;5028955;28;20025;-67
2023/05/10 06:54:48;;;;;;;6.55;2.92;;;;;;;;;;5032758;28;20117;-64
2023/05/10 06:57:14;;;;;;;5.68;3.00;;;;;;;;;;5033162;28;20108;-72
2023/05/10 06:59:39;;;;;;;9.35;2.67;;;;;;;;;;5032998;28;20071;-70
2023/05/10 07:02:05;;;;;;;5.38;3.03;;;;;;;;;;5026372;28;20479;-63
2023/05/10 07:04:31;;;;;;;9.02;3.03;;;;;;;;;;5032749;28;20030;-67
2023/05/10 07:06:57;;;;;;;5.35;2.80;;;;;;;;;;5032791;28;20021;-63
2023/05/10 07:09:24;;;;;;;5.72;3.05;;;;;;;;;;5032808;28;20036;-64
2023/05/10 07:11:49;;;;;;;5.53;2.85;;;;;;;;;;5032867;28;20079;-63
2023/05/10 07:14:15;;;;;;;5.90;3.55;;;;;;;;;;5032889;28;20022;-64
2023/05/10 07:16:40;;;;;;;6.05;3.38;;;;;;;;;;5032937;28;20076;-62
2023/05/10 07:19:06;;;;;;;4.97;3.15;;;;;;;;;;5032828;28;20026;-62
2023/05/10 07:21:31;;;;;;;9.45;3.30;;;;;;;;;;5032247;28;20066;-63
2023/05/10 07:23:57;;;;;;;4.00;2.45;;;;;;;;;;5027868;28;20025;-62
2023/05/10 07:26:23;;;;;;;5.32;2.45;;;;;;;;;;5020467;28;20037;-67
2023/05/10 07:28:49;;;;;;;5.60;3.10;;;;;;;;;;5012328;28;20026;-69
2023/05/10 07:31:15;;;;;;;4.05;2.58;;;;;;;;;;5010834;28;20054;-68
2023/05/10 07:33:40;;;;;;;6.90;2.83;;;;;;;;;;5012139;28;20068;-70
2023/05/10 07:36:06;;;;;;;6.25;3.08;;;;;;;;;;5016476;28;20462;-68
2023/05/10 07:38:31;;;;;;;6.88;3.42;;;;;;;;;;5031848;28;20065;-70
2023/05/10 07:40:57;;;;;;;6.38;3.30;;;;;;;;;;5031849;28;20478;-68
2023/05/10 07:43:22;;;;;;;5.70;3.15;;;;;;;;;;5031805;28;20029;-65
2023/05/10 07:45:47;;;;;;;7.40;3.55;;;;;;;;;;5031732;28;20029;-68
2023/05/10 07:48:13;;;;;;;7.03;2.95;;;;;;;;;;5031839;28;20041;-66
2023/05/10 07:50:38;;;;;;;6.95;2.70;;;;;;;;;;5031362;28;20028;-67
2023/05/10 07:53:04;;;;;;;7.50;2.85;;;;;;;;;;5031726;28;20029;-69
2023/05/10 07:55:29;;;;;;;5.50;2.90;;;;;;;;;;5030835;28;20034;-66
2023/05/10 07:57:55;;;;;;;4.32;2.50;;;;;;;;;;5011688;28;20042;-65
2023/05/10 08:00:20;;;;;;;4.63;2.17;;;;;;;;;;5011869;28;20014;-63
2023/05/10 08:02:47;;;;;;;8.75;2.75;;;;;;;;;;5011904;28;20026;-63
2023/05/10 08:05:13;;;;;;;3.80;2.65;;;;;;;;;;5011457;28;20053;-70
2023/05/10 08:07:38;;;;;;;5.05;2.85;;;;;;;;;;5011756;28;20160;-67
2023/05/10 08:10:04;;;;;;;8.50;3.25;;;;;;;;;;5011581;28;20080;-67
2023/05/10 08:12:30;;;;;;;5.35;2.60;;;;;;;;;;5011834;28;20026;-68
2023/05/10 08:14:56;;;;;;;2.88;2.00;;;;;;;;;;5014450;28;20049;-68
2023/05/10 08:17:21;;;;;;;6.30;3.10;;;;;;;;;;5015328;28;20503;-65
2023/05/10 08:19:46;;;;;;;6.53;3.42;;;;;;;;;;5019743;28;20029;-68
2023/05/10 08:22:12;;;;;;;4.97;2.97;;;;;;;;;;5034921;28;20030;-68
2023/05/10 08:24:38;;;;;;;5.10;2.80;;;;;;;;;;5034822;28;20028;-67
2023/05/10 08:27:07;;;;;;;5.57;2.90;;;;;;;;;;4985622;28;1417235;-68
2023/05/10 08:29:33;;;;;;;7.05;3.00;;;;;;;;;;5036054;28;20033;-68
2023/05/10 08:31:58;;;;;;;4.50;2.30;;;;;;;;;;5035836;28;20123;-65
2023/05/10 08:34:24;;;;;;;4.50;2.40;;;;;;;;;;5035704;28;20017;-65
2023/05/10 08:36:50;;;;;;;5.25;2.50;;;;;;;;;;5031935;28;20025;-62
2023/05/10 08:39:15;;;;;;;5.25;2.28;;;;;;;;;;5030742;28;20027;-67
2023/05/10 08:41:44;;;;;;;4.93;2.65;;;;;;;;;;5031309;28;20115;-63
2023/05/10 08:44:10;;;;;;;7.95;2.80;;;;;;;;;;5035984;28;20033;-69
2023/05/10 08:46:39;;;;;;;4.88;2.58;;;;;;;;;;5035562;28;20584;-64
2023/05/10 08:49:07;;;;;;;4.25;2.17;;;;;;;;;;5035500;28;20472;-69
2023/05/10 08:51:40;;;;;;;5.40;2.90;;;;;;;;;;5035723;28;20029;-61
2023/05/10 08:54:06;;;;;;;3.10;2.13;;;;;;;;;;5035478;28;20087;-65
2023/05/10 08:56:31;;;;;;;5.20;2.50;;;;;;;;;;5035503;28;20037;-64
2023/05/10 08:58:57;;;;;;;7.13;2.40;;;;;;;;;;5034388;28;20048;-64
2023/05/10 09:01:24;;;;;;;3.65;2.63;;;;;;;;;;5035484;28;20017;-64
2023/05/10 09:03:53;;;;;;;4.28;2.25;;;;;;;;;;5035441;28;20021;-66
2023/05/10 09:06:18;;;;;;;4.50;2.10;;;;;;;;;;5035352;28;20034;-67
2023/05/10 09:08:44;;;;;;;3.53;2.20;;;;;;;;;;5035375;28;20483;-66
2023/05/10 09:11:11;;;;;;;4.10;2.20;;;;;;;;;;5035406;28;20017;-66
2023/05/10 09:13:36;;;;;;;4.70;2.53;;;;;;;;;;5035255;28;20025;-63
2023/05/10 09:16:05;;;;;;;9.60;2.45;;;;;;;;;;5035020;28;20164;-66
2023/05/10 09:18:31;;;;;;;3.40;2.42;;;;;;;;;;5035351;28;20025;-67
2023/05/10 09:20:56;;;;;;;3.58;2.38;;;;;;;;;;5033572;28;20155;-65
2023/05/10 09:23:22;;;;;;;3.63;2.22;;;;;;;;;;5035083;28;20028;-65
2023/05/10 09:25:47;;;;;;;4.25;2.55;;;;;;;;;;5034449;28;20470;-63
2023/05/10 09:28:13;;;;;;;9.68;2.50;;;;;;;;;;5034749;28;20062;-65
2023/05/10 09:30:39;;;;;;;4.97;2.63;;;;;;;;;;5034857;28;20462;-66
2023/05/10 09:33:04;;;;;;;4.32;2.47;;;;;;;;;;5034766;28;20105;-62
2023/05/10 09:35:31;;;;;;;3.75;2.13;;;;;;;;;;5034782;28;20121;-65
2023/05/10 09:38:00;;;;;;;3.97;2.42;;;;;;;;;;5015065;28;20695;-67
2023/05/10 09:40:28;;;;;;;4.80;2.53;;;;;;;;;;5015110;28;20396;-67
2023/05/10 09:42:58;;;;;;;4.72;3.25;;;;;;;;;;5015058;28;20061;-67
2023/05/10 09:45:25;;;;;;;3.30;2.60;;;;;;;;;;5014755;28;20026;-67
2023/05/10 09:47:51;;;;;;;5.63;2.13;;;;;;;;;;5014520;28;20534;-67
2023/05/10 09:50:17;;;;;;;7.18;2.47;;;;;;;;;;5014893;28;20424;-65
2023/05/10 09:52:58;;;;;;;7.13;2.40;;;;;;;;;;5034599;28;20127;-69
2023/05/10 09:55:45;;;;;;;3.63;2.45;;;;;;;;;;5034445;28;20103;-67
2023/05/10 09:58:12;;;;;;;3.88;2.38;;;;;;;;;;5034525;28;20022;-67
2023/05/10 10:00:40;;;;;;;6.53;2.38;;;;;;;;;;5034095;28;20021;-67
2023/05/10 10:03:06;;;;;;;3.90;2.05;;;;;;;;;;5034241;28;20018;-67
2023/05/10 10:05:34;;;;;;;4.70;2.00;;;;;;;;;;5034132;28;20026;-67
2023/05/10 10:08:04;;;;;;;2.83;1.70;;;;;;;;;;5033773;28;20116;-66
2023/05/10 10:10:31;;;;;;;2.67;1.60;;;;;;;;;;5034625;28;20032;-65
2023/05/10 10:12:56;;;;;;;7.63;2.33;;;;;;;;;;5034141;28;20029;-67
2023/05/10 10:15:23;;;;;;;3.08;1.65;;;;;;;;;;5033724;28;20545;-67
2023/05/10 10:17:50;;;;;;;5.13;2.17;;;;;;;;;;5033713;28;20021;-68
2023/05/10 10:20:16;;;;;;;4.32;2.10;;;;;;;;;;5033689;28;20048;-67
2023/05/10 10:22:43;;;;;;;3.75;1.95;;;;;;;;;;5034012;28;20025;-63
2023/05/10 10:25:11;;;;;;;4.65;1.85;;;;;;;;;;5033858;28;20514;-64
2023/05/10 10:27:51;;;;;;;2.35;1.65;;;;;;;;;;5033599;28;20053;-62
2023/05/10 10:30:26;;;;;;;8.15;1.90;;;;;;;;;;5033499;28;20029;-63
2023/05/10 10:33:07;;;;;;;3.00;1.90;;;;;;;;;;5033909;28;20463;-63
2023/05/10 10:35:33;;;;;;;3.35;1.80;;;;;;;;;;5033559;28;20111;-64
2023/05/10 10:38:00;;;;;;;2.70;1.80;;;;;;;;;;5033192;28;20060;-61
2023/05/10 10:40:26;;;;;;;4.00;2.30;;;;;;;;;;5033779;28;20036;-62
2023/05/10 10:42:53;;;;;;;4.65;2.00;;;;;;;;;;5033460;28;20467;-62
2023/05/10 10:45:19;;;;;;;4.53;1.98;;;;;;;;;;5033468;28;20047;-63
2023/05/10 10:47:45;;;;;;;4.75;1.83;;;;;;;;;;5033146;28;20528;-63
2023/05/10 10:50:12;;;;;;;4.80;2.10;;;;;;;;;;5033459;28;20053;-68
2023/05/10 10:52:44;;;;;;;4.22;2.25;;;;;;;;;;5014053;28;20061;-66
2023/05/10 10:55:14;;;;;;;4.47;1.70;;;;;;;;;;5013445;28;20030;-66
2023/05/10 10:57:40;;;;;;;5.78;1.83;;;;;;;;;;5013318;28;20048;-63
2023/05/10 11:00:30;;;;;;;3.40;1.90;;;;;;;;;;5013591;28;20398;-69
2023/05/10 11:02:59;;;;;;;5.45;2.13;;;;;;;;;;5013408;28;20085;-65
2023/05/10 11:05:24;;;;;;;4.00;2.00;;;;;;;;;;5013441;28;20030;-62
2023/05/10 11:07:54;;;;;;;11.05;1.63;;;;;;;;;;5013332;28;20048;-63
2023/05/10 11:10:23;;;;;;;6.80;2.05;;;;;;;;;;5021267;28;20021;-62
2023/05/10 11:13:04;;;;;;;5.80;2.10;;;;;;;;;;5032821;28;20033;-65
2023/05/10 11:15:34;;;;;;;2.55;1.40;;;;;;;;;;5032999;28;20073;-68
2023/05/10 11:18:15;;;;;;;4.25;1.95;;;;;;;;;;5032757;28;20037;-66
2023/05/10 11:20:41;;;;;;;6.32;1.95;;;;;;;;;;5032726;28;20414;-62
2023/05/10 11:23:15;;;;;;;5.03;1.70;;;;;;;;;;5032719;28;20056;-63
2023/05/10 11:25:45;;;;;;;7.63;1.55;;;;;;;;;;5032639;28;20030;-64
2023/05/10 11:28:11;;;;;;;8.55;2.15;;;;;;;;;;5032404;28;20050;-65
2023/05/10 11:30:41;;;;;;;4.05;1.83;;;;;;;;;;5025822;28;20474;-67
2023/05/10 11:33:07;;;;;;;;;;;;;;;;;;5033127;28;20112;-64
2023/05/10 11:35:40;;;;;;;3.20;1.60;;;;;;;;;;5032379;28;20032;-64
2023/05/10 11:38:10;;;;;;;4.32;1.77;;;;;;;;;;5032413;28;20033;-62
2023/05/10 11:40:37;;;;;;;3.15;1.70;;;;;;;;;;5032348;28;20068;-62
2023/05/10 11:43:03;;;;;;;2.78;1.67;;;;;;;;;;5031294;28;20407;-64
2023/05/10 11:45:32;;;;;;;4.50;1.95;;;;;;;;;;5032533;28;20467;-64
2023/05/10 11:47:59;;;;;;;3.28;1.67;;;;;;;;;;5032494;28;20030;-63
2023/05/10 11:50:25;;;;;;;3.95;1.83;;;;;;;;;;5028201;28;20038;-65
2023/05/10 11:52:56;;;;;;;8.90;1.80;;;;;;;;;;5032112;28;20032;-64
2023/05/10 11:55:24;;;;;;;3.35;1.50;;;;;;;;;;5032469;28;20060;-64
2023/05/10 11:57:53;;;;;;;3.88;1.70;;;;;;;;;;5030309;28;20469;-64
2023/05/10 12:00:19;;;;;;;4.22;1.25;;;;;;;;;;5031106;28;20037;-71
2023/05/10 12:02:45;;;;;;;3.88;1.77;;;;;;;;;;5031846;28;20030;-63
2023/05/10 12:05:10;;;;;;;3.40;1.77;;;;;;;;;;5032187;28;20021;-71
2023/05/10 12:07:36;;;;;;;7.18;2.20;;;;;;;;;;5032207;28;20029;-63
2023/05/10 12:10:17;;;;;;;3.50;1.60;;;;;;;;;;5031682;28;20027;-71
2023/05/10 12:12:49;;;;;;;4.20;2.30;;;;;;;;;;5032098;28;20403;-69
2023/05/10 12:15:23;;;;;;;3.22;1.80;;;;;;;;;;5032006;28;20060;-72
2023/05/10 12:17:49;;;;;;;2.72;1.50;;;;;;;;;;5031922;28;20160;-65
2023/05/10 12:20:23;;;;;;;5.43;1.92;;;;;;;;;;5031768;28;20037;-72
2023/05/10 12:22:54;;;;;;;4.07;1.52;;;;;;;;;;5031393;28;20108;-67
2023/05/10 12:25:22;;;;;;;3.80;1.52;;;;;;;;;;5031647;28;20033;-63
2023/05/10 12:27:55;;;;;;;4.75;2.10;;;;;;;;;;5031307;28;20506;-63
2023/05/10 12:30:28;;;;;;;4.90;1.67;;;;;;;;;;5031615;28;20033;-64
2023/05/10 12:32:59;;;;;;;3.08;1.58;;;;;;;;;;5034918;28;20108;-64
2023/05/10 12:35:24;;;;;;;4.57;2.10;;;;;;;;;;5051663;28;20028;-63
2023/05/10 12:37:52;;;;;;;2.78;1.67;;;;;;;;;;5034803;28;20029;-67
2023/05/10 12:40:18;;;;;;;4.55;1.70;;;;;;;;;;5051565;28;20029;-67
2023/05/10 12:42:46;;;;;;;3.55;2.00;;;;;;;;;;5033239;28;20029;-71
2023/05/10 12:45:12;;;;;;;5.22;1.83;;;;;;;;;;5031600;28;20117;-63
2023/05/10 12:47:38;;;;;;;14.50;1.75;;;;;;;;;;5031770;28;20109;-70
2023/05/10 12:50:04;;;;;;;4.20;1.48;;;;;;;;;;5031675;28;20030;-64
2023/05/10 12:52:31;;;;;;;4.32;1.70;;;;;;;;;;5031527;28;20037;-68
2023/05/10 12:54:58;;;;;;;3.40;2.15;;;;;;;;;;5050383;28;20021;-63
2023/05/10 12:57:24;;;;;;;4.15;1.70;;;;;;;;;;5051827;28;20032;-70
2023/05/10 12:59:50;;;;;;;3.33;1.70;;;;;;;;;;5052549;28;20033;-68
2023/05/10 13:02:17;;;;;;;6.43;2.30;;;;;;;;;;5055158;28;20389;-63
2023/05/10 13:04:43;;;;;;;2.35;1.33;;;;;;;;;;5053273;28;20029;-70
2023/05/10 13:07:09;;;;;;;4.00;1.83;;;;;;;;;;5055249;28;20382;-71
2023/05/10 13:09:35;;;;;;;4.90;1.88;;;;;;;;;;5054785;28;20036;-71
2023/05/10 13:12:01;;;;;;;4.57;1.75;;;;;;;;;;5054907;28;20041;-70
2023/05/10 13:14:26;;;;;;;4.22;1.90;;;;;;;;;;5054748;28;20032;-72
2023/05/10 13:16:52;;;;;;;5.57;1.83;;;;;;;;;;5054858;28;20087;-72
2023/05/10 13:19:17;;;;;;;2.70;1.50;;;;;;;;;;5052172;28;20048;-72
2023/05/10 13:21:46;;;;;;;6.47;1.83;;;;;;;;;;5034701;28;20494;-72
2023/05/10 13:24:13;;;;;;;3.17;1.65;;;;;;;;;;5034849;28;20041;-72
2023/05/10 13:26:40;;;;;;;5.60;1.85;;;;;;;;;;5034628;28;20032;-72
2023/05/10 13:29:06;;;;;;;5.95;1.95;;;;;;;;;;5034636;28;20041;-69
2023/05/10 13:31:32;;;;;;;5.88;1.83;;;;;;;;;;5034763;28;20089;-69
2023/05/10 13:33:57;;;;;;;4.68;1.63;;;;;;;;;;5034813;28;20120;-69
2023/05/10 13:36:23;;;;;;;3.67;1.70;;;;;;;;;;5034311;28;20029;-73
2023/05/10 13:38:48;;;;;;;6.78;2.00;;;;;;;;;;5041549;28;20430;-70
2023/05/10 13:41:14;;;;;;;3.33;1.90;;;;;;;;;;5053225;28;20036;-64
2023/05/10 13:43:39;;;;;;;7.13;1.80;;;;;;;;;;5054032;28;20025;-65
2023/05/10 13:46:05;;;;;;;5.60;2.00;;;;;;;;;;5054234;28;20025;-65
2023/05/10 13:48:31;;;;;;;3.45;1.90;;;;;;;;;;5039952;28;20104;-69
2023/05/10 13:50:56;;;;;;;5.95;1.88;;;;;;;;;;5048880;28;20036;-71
2023/05/10 13:53:22;;;;;;;4.63;1.98;;;;;;;;;;5034005;28;20033;-68
2023/05/10 13:55:47;;;;;;;6.40;2.00;;;;;;;;;;5033925;28;20116;-67
2023/05/10 13:58:13;;;;;;;3.83;1.80;;;;;;;;;;5035308;28;20033;-69
2023/05/10 14:00:38;;;;;;;5.88;2.00;;;;;;;;;;5043399;28;20463;-68
2023/05/10 14:03:05;;;;;;;7.63;2.13;;;;;;;;;;5034122;28;20036;-70
2023/05/10 14:05:30;;;;;;;2.80;2.00;;;;;;;;;;5053743;28;20048;-70
2023/05/10 14:07:56;;;;;;;6.22;2.17;;;;;;;;;;5052366;28;20029;-71
2023/05/10 14:10:21;;;;;;;3.15;1.73;;;;;;;;;;5051678;28;20091;-70
2023/05/10 14:12:46;;;;;;;8.13;2.03;;;;;;;;;;5053022;28;20028;-70
2023/05/10 14:15:12;;;;;;;3.03;1.75;;;;;;;;;;5053928;28;20033;-62
2023/05/10 14:17:37;;;;;;;5.43;2.00;;;;;;;;;;5053406;28;20032;-62
2023/05/10 14:20:03;;;;;;;3.00;1.92;;;;;;;;;;5045773;28;20125;-65
2023/05/10 14:22:29;;;;;;;5.07;1.85;;;;;;;;;;5033229;28;20021;-62
2023/05/10 14:24:55;;;;;;;3.92;2.05;;;;;;;;;;5033669;28;20083;-64
2023/05/10 14:27:20;;;;;;;4.93;2.00;;;;;;;;;;5033560;28;20503;-68
2023/05/10 14:29:47;;;;;;;6.72;1.98;;;;;;;;;;5033739;28;20108;-71
2023/05/10 14:32:12;;;;;;;3.30;1.80;;;;;;;;;;5033559;28;20026;-66
2023/05/10 14:34:38;;;;;;;4.03;1.95;;;;;;;;;;5033220;28;20037;-71
2023/05/10 14:37:04;;;;;;;4.82;1.90;;;;;;;;;;5033076;28;20391;-72
2023/05/10 14:39:30;;;;;;;3.80;1.80;;;;;;;;;;5043146;28;20055;-72
2023/05/10 14:41:55;;;;;;;2.47;1.65;;;;;;;;;;5053387;28;20360;-67
2023/05/10 14:44:21;;;;;;;5.55;1.95;;;;;;;;;;5052777;28;20021;-73